Time;durP1;ratioP1;P1;durP2;ratioP2;P2;SDS_P1;SDS_P2;PMS_P1;PMS_P2;Temp;Humidity;BMP_temperature;BMP_pressure;BME280_temperature;BME280_humidity;BME280_pressure;Samples;Min_cycle;Max_cycle;Signal;HPM_P1;HPM_P2
2023/12/03 00:00:17;;;;;;;75.20;42.10;;;;;;;3.11;85.00;99702.84;107598;1251;99746;-59
2023/12/03 00:03:06;;;;;;;68.20;40.10;;;;;;;3.16;85.20;99743.38;107581;1251;115250;-60
2023/12/03 00:05:37;;;;;;;68.70;37.50;;;;;;;3.19;85.18;99786.44;107533;1252;109950;-59
2023/12/03 00:08:05;;;;;;;68.40;39.00;;;;;;;3.19;85.58;99807.15;107595;1255;107659;-60
2023/12/03 00:10:34;;;;;;;67.50;38.60;;;;;;;3.17;85.92;99803.73;107565;1253;99249;-61
2023/12/03 00:13:02;;;;;;;70.90;39.80;;;;;;;3.17;85.96;99816.34;107565;1252;100369;-59
2023/12/03 00:15:30;;;;;;;72.60;39.20;;;;;;;3.20;85.89;99826.17;107536;1252;113253;-60
2023/12/03 00:17:59;;;;;;;76.20;40.80;;;;;;;3.28;86.09;99851.11;107562;1251;109822;-60
2023/12/03 00:20:27;;;;;;;82.50;41.30;;;;;;;3.35;86.71;99842.83;107526;1253;108517;-61
2023/12/03 00:22:56;;;;;;;73.70;40.50;;;;;;;3.39;86.73;99835.05;107584;1253;99194;-61
2023/12/03 00:25:24;;;;;;;77.50;37.90;;;;;;;3.43;86.58;99830.86;107624;1253;99103;-59
2023/12/03 00:27:53;;;;;;;71.70;36.50;;;;;;;3.42;86.51;99828.44;107631;1253;113372;-60
2023/12/03 00:30:21;;;;;;;71.80;38.60;;;;;;;3.40;86.57;99826.30;107541;1252;109059;-61
2023/12/03 00:32:49;;;;;;;78.60;41.10;;;;;;;3.35;86.37;99831.30;107535;1253;107618;-62
2023/12/03 00:35:17;;;;;;;74.70;39.90;;;;;;;3.34;86.60;99845.55;107544;1253;99057;-60
2023/12/03 00:37:46;;;;;;;77.60;39.60;;;;;;;3.38;86.61;99847.73;107553;1255;99074;-58
2023/12/03 00:40:15;;;;;;;72.60;37.40;;;;;;;3.44;86.73;99849.97;107544;1253;113111;-60
2023/12/03 00:42:43;;;;;;;75.60;38.40;;;;;;;3.46;86.78;99852.98;107545;1255;110130;-62
2023/12/03 00:45:12;;;;;;;73.40;37.50;;;;;;;3.49;86.60;99852.96;107529;1253;107465;-61
2023/12/03 00:47:40;;;;;;;71.10;38.30;;;;;;;3.51;86.73;99864.17;107544;1253;99197;-60
2023/12/03 00:50:09;;;;;;;72.90;38.50;;;;;;;3.48;86.65;99862.98;107567;1252;99105;-60
2023/12/03 00:52:38;;;;;;;71.10;37.90;;;;;;;3.49;86.57;99862.02;107592;1252;113637;-62
2023/12/03 00:55:07;;;;;;;73.00;38.70;;;;;;;3.51;86.48;99867.52;107566;1253;109082;-60
2023/12/03 00:57:35;;;;;;;72.50;40.60;;;;;;;3.55;86.79;99864.23;107558;1252;108600;-63
2023/12/03 01:00:05;;;;;;;72.50;39.40;;;;;;;3.57;86.75;99855.19;107533;1252;99286;-63
2023/12/03 01:02:34;;;;;;;74.10;41.40;;;;;;;3.58;86.66;99863.16;107605;1253;100369;-60
2023/12/03 01:05:03;;;;;;;68.20;36.80;;;;;;;3.56;86.18;99868.03;107578;1253;112709;-61
2023/12/03 01:07:31;;;;;;;74.50;39.50;;;;;;;3.52;85.89;99875.98;107676;1251;110496;-60
2023/12/03 01:10:00;;;;;;;69.00;38.40;;;;;;;3.53;86.28;99873.59;107593;1255;107374;-61
2023/12/03 01:12:29;;;;;;;66.50;37.90;;;;;;;3.55;86.05;99855.02;107550;1251;99172;-65
2023/12/03 01:14:57;;;;;;;66.20;37.30;;;;;;;3.57;86.11;99858.08;107571;1255;99176;-61
2023/12/03 01:17:25;;;;;;;68.40;39.70;;;;;;;3.53;85.58;99864.55;107435;1252;113170;-61
2023/12/03 01:19:53;;;;;;;64.80;38.80;;;;;;;3.44;85.32;99865.58;107615;1253;108954;-60
2023/12/03 01:22:22;;;;;;;69.80;40.60;;;;;;;3.35;85.44;99849.02;107621;1251;107196;-60
2023/12/03 01:24:50;;;;;;;71.70;39.10;;;;;;;3.30;85.39;99833.46;107569;1253;99189;-61
2023/12/03 01:27:18;;;;;;;73.10;39.20;;;;;;;3.27;85.47;99834.69;107568;1253;99762;-60
2023/12/03 01:29:47;;;;;;;68.90;37.30;;;;;;;3.25;85.39;99836.99;107587;1253;113025;-61
2023/12/03 01:32:15;;;;;;;67.70;35.80;;;;;;;3.23;85.39;99833.61;107546;1255;109919;-61
2023/12/03 01:34:43;;;;;;;75.60;39.80;;;;;;;3.22;85.30;99842.38;107534;1253;108318;-62
2023/12/03 01:37:12;;;;;;;70.60;39.00;;;;;;;3.23;85.72;99824.55;107590;1254;99172;-61
2023/12/03 01:39:40;;;;;;;72.20;39.60;;;;;;;3.26;85.54;99823.28;107524;1255;99260;-59
2023/12/03 01:42:08;;;;;;;73.70;39.00;;;;;;;3.29;85.56;99825.55;107569;1253;112956;-62
2023/12/03 01:44:36;;;;;;;71.70;39.20;;;;;;;3.32;85.56;99823.05;107569;1252;110028;-59
2023/12/03 01:47:05;;;;;;;64.60;38.00;;;;;;;3.36;85.83;99818.97;107575;1252;108720;-60
2023/12/03 01:49:34;;;;;;;71.40;38.50;;;;;;;3.38;85.83;99815.48;107607;1251;99164;-60
2023/12/03 01:52:03;;;;;;;70.50;38.60;;;;;;;3.37;85.23;99814.86;107594;1253;99253;-63
2023/12/03 01:54:36;;;;;;;72.10;39.50;;;;;;;3.35;84.91;99826.17;107597;1253;112795;-60
2023/12/03 01:57:07;;;;;;;66.60;36.60;;;;;;;3.28;84.38;99820.80;107618;1251;109362;-65
2023/12/03 01:59:36;;;;;;;66.50;35.70;;;;;;;3.20;84.13;99817.36;107544;1252;106885;-60
2023/12/03 02:02:04;;;;;;;56.20;33.60;;;;;;;3.12;83.94;99815.98;107623;1253;99183;-61
2023/12/03 02:04:32;;;;;;;66.10;35.10;;;;;;;3.04;83.94;99819.55;107628;1253;99817;-59
2023/12/03 02:07:01;;;;;;;61.80;33.90;;;;;;;3.01;84.27;99832.15;107550;1253;112684;-60
2023/12/03 02:09:30;;;;;;;64.60;37.30;;;;;;;3.01;84.47;99848.41;107576;1253;108707;-60
2023/12/03 02:11:58;;;;;;;66.90;36.40;;;;;;;3.01;84.49;99859.83;107540;1253;108403;-60
2023/12/03 02:14:26;;;;;;;60.70;34.80;;;;;;;2.97;84.39;99849.80;107555;1253;99070;-60
2023/12/03 02:16:55;;;;;;;66.30;34.70;;;;;;;2.97;84.54;99845.89;107632;1251;99073;-60
2023/12/03 02:19:23;;;;;;;69.60;36.80;;;;;;;2.99;84.43;99853.02;107602;1250;113255;-61
2023/12/03 02:21:52;;;;;;;65.10;36.00;;;;;;;2.94;84.13;99850.53;107641;1255;109215;-60
2023/12/03 02:24:20;;;;;;;63.00;34.60;;;;;;;2.86;83.74;99843.66;107611;1253;107891;-60
2023/12/03 02:26:49;;;;;;;62.40;34.90;;;;;;;2.83;83.81;99837.00;107483;1253;99314;-61
2023/12/03 02:29:17;;;;;;;63.70;35.50;;;;;;;2.84;84.15;99841.84;107587;1253;99198;-59
2023/12/03 02:31:46;;;;;;;59.80;33.50;;;;;;;2.85;83.79;99842.90;107568;1253;113145;-59
2023/12/03 02:34:14;;;;;;;70.80;37.40;;;;;;;2.82;83.78;99840.22;107567;1253;110730;-61
2023/12/03 02:36:42;;;;;;;63.90;37.00;;;;;;;2.80;83.52;99848.86;107541;1253;106863;-61
2023/12/03 02:39:11;;;;;;;68.70;37.60;;;;;;;2.76;83.62;99868.45;107560;1252;99190;-61
2023/12/03 02:41:39;;;;;;;64.20;35.70;;;;;;;2.73;83.64;99876.84;107480;1255;99058;-62
2023/12/03 02:44:07;;;;;;;63.50;36.70;;;;;;;2.67;83.55;99889.29;107536;1253;113421;-60
2023/12/03 02:46:36;;;;;;;65.30;36.00;;;;;;;2.62;83.54;99896.87;107558;1253;110160;-59
2023/12/03 02:49:04;;;;;;;67.30;36.80;;;;;;;2.62;83.56;99896.52;107530;1251;108891;-63
2023/12/03 02:51:33;;;;;;;66.70;37.20;;;;;;;2.62;83.86;99907.11;107565;1253;99102;-60
2023/12/03 02:54:02;;;;;;;63.80;36.30;;;;;;;2.62;83.99;99911.36;107569;1253;99194;-60
2023/12/03 02:56:31;;;;;;;64.50;36.10;;;;;;;2.57;83.47;99911.55;107546;1252;113259;-60
2023/12/03 02:58:59;;;;;;;72.40;39.00;;;;;;;2.56;83.83;99909.19;107616;1254;110885;-61
2023/12/03 03:01:28;;;;;;;71.50;37.40;;;;;;;2.55;83.82;99916.45;107514;1252;107352;-61
2023/12/03 03:03:56;;;;;;;66.70;35.40;;;;;;;2.56;83.94;99928.82;107524;1255;99293;-60
2023/12/03 03:06:24;;;;;;;58.90;35.90;;;;;;;2.54;83.86;99930.92;107573;1254;99272;-59
2023/12/03 03:08:53;;;;;;;67.30;36.00;;;;;;;2.50;83.57;99935.74;107645;1251;111844;-59
2023/12/03 03:11:22;;;;;;;70.20;36.50;;;;;;;2.47;83.42;99931.15;107531;1251;108849;-62
2023/12/03 03:13:50;;;;;;;59.60;34.50;;;;;;;2.43;83.14;99938.50;107569;1252;108125;-60
2023/12/03 03:16:18;;;;;;;61.50;35.20;;;;;;;2.38;83.12;99936.02;107552;1256;99173;-60
2023/12/03 03:18:47;;;;;;;59.60;35.00;;;;;;;2.33;83.19;99928.58;107618;1251;99220;-60
2023/12/03 03:21:15;;;;;;;65.80;36.80;;;;;;;2.27;82.81;99937.10;107631;1254;112884;-61
2023/12/03 03:23:44;;;;;;;72.20;42.40;;;;;;;2.21;82.56;99934.32;107600;1251;109611;-59
2023/12/03 03:26:12;;;;;;;66.40;36.50;;;;;;;2.13;82.31;99935.91;107574;1254;108419;-60
2023/12/03 03:28:40;;;;;;;68.90;36.20;;;;;;;2.00;81.45;99946.52;107585;1251;99055;-60
2023/12/03 03:31:08;;;;;;;73.00;38.50;;;;;;;1.90;81.69;99952.81;107612;1253;99159;-61
2023/12/03 03:33:37;;;;;;;72.60;37.80;;;;;;;1.80;81.41;99964.27;107585;1255;113113;-60
2023/12/03 03:36:06;;;;;;;74.20;38.00;;;;;;;1.65;80.84;99965.58;107644;1254;110362;-61
2023/12/03 03:38:34;;;;;;;69.20;36.30;;;;;;;1.54;81.09;99966.59;107664;1255;107244;-62
2023/12/03 03:41:04;;;;;;;77.30;41.40;;;;;;;1.47;81.20;99964.95;107586;1251;99176;-62
2023/12/03 03:43:32;;;;;;;74.70;40.70;;;;;;;1.43;81.97;99965.92;107642;1254;99210;-62
2023/12/03 03:46:01;;;;;;;66.60;36.70;;;;;;;1.38;81.91;99971.73;107566;1251;113291;-61
2023/12/03 03:48:30;;;;;;;65.40;37.70;;;;;;;1.31;81.66;99977.77;107627;1250;109591;-62
2023/12/03 03:50:58;;;;;;;57.10;32.80;;;;;;;1.20;81.37;99985.86;107486;1254;108482;-61
2023/12/03 03:53:27;;;;;;;63.60;35.30;;;;;;;1.11;81.37;99989.07;107620;1254;99178;-60
2023/12/03 03:55:55;;;;;;;65.70;34.90;;;;;;;1.07;81.36;99987.05;107600;1253;99052;-62
2023/12/03 03:58:23;;;;;;;62.80;35.90;;;;;;;1.05;81.30;99986.63;107569;1251;112655;-61
2023/12/03 04:00:52;;;;;;;60.70;35.20;;;;;;;1.03;81.57;99992.04;107529;1251;109517;-60
2023/12/03 04:03:20;;;;;;;74.50;37.60;;;;;;;1.02;81.74;100001.79;107526;1256;108428;-60
2023/12/03 04:05:49;;;;;;;76.70;38.40;;;;;;;1.03;81.87;100012.02;107554;1253;99187;-62
2023/12/03 04:08:17;;;;;;;69.70;34.80;;;;;;;1.00;81.84;100016.98;107657;1253;99173;-61
2023/12/03 04:10:45;;;;;;;65.50;36.40;;;;;;;0.97;82.08;100012.89;107579;1251;113494;-61
2023/12/03 04:13:13;;;;;;;59.80;33.20;;;;;;;0.99;82.32;100012.39;107532;1253;108811;-60
2023/12/03 04:15:42;;;;;;;60.10;33.20;;;;;;;0.99;82.11;100009.97;107533;1251;108169;-60
2023/12/03 04:18:10;;;;;;;60.90;31.80;;;;;;;1.01;82.51;100014.59;107536;1253;99201;-61
2023/12/03 04:20:39;;;;;;;57.70;32.40;;;;;;;1.05;82.85;100010.13;107634;1251;99719;-61
2023/12/03 04:23:07;;;;;;;61.00;31.80;;;;;;;1.06;82.62;100011.13;107575;1251;112573;-61
2023/12/03 04:25:35;;;;;;;59.10;29.90;;;;;;;1.07;82.64;100009.83;107530;1253;109823;-62
2023/12/03 04:28:04;;;;;;;55.20;30.90;;;;;;;1.08;82.74;100022.95;107561;1251;108291;-60
2023/12/03 04:30:33;;;;;;;55.40;29.70;;;;;;;1.12;82.91;100025.23;107548;1254;99251;-62
2023/12/03 04:33:01;;;;;;;59.10;31.10;;;;;;;1.13;82.86;100024.46;107667;1251;99132;-59
2023/12/03 04:35:30;;;;;;;52.60;28.80;;;;;;;1.11;82.44;100025.14;107566;1251;113149;-61
2023/12/03 04:37:58;;;;;;;53.10;31.40;;;;;;;1.09;82.65;100029.79;107590;1251;109639;-60
2023/12/03 04:40:27;;;;;;;53.00;28.40;;;;;;;1.11;83.05;100028.11;107518;1254;108563;-62
2023/12/03 04:42:55;;;;;;;53.50;29.30;;;;;;;1.11;82.82;100038.02;107566;1255;99179;-62
2023/12/03 04:45:24;;;;;;;48.60;28.40;;;;;;;1.09;82.96;100036.52;107561;1253;100422;-62
2023/12/03 04:47:52;;;;;;;51.60;27.80;;;;;;;1.11;83.02;100038.90;107524;1255;112476;-61
2023/12/03 04:50:21;;;;;;;54.90;29.30;;;;;;;1.16;83.39;100036.27;107520;1255;109261;-61
2023/12/03 04:52:50;;;;;;;50.40;28.20;;;;;;;1.24;83.63;100040.75;107623;1252;109335;-61
2023/12/03 04:55:19;;;;;;;52.30;27.40;;;;;;;1.30;83.63;100035.61;107587;1251;99184;-61
2023/12/03 04:57:47;;;;;;;45.70;26.40;;;;;;;1.38;83.78;100038.66;107594;1255;99093;-61
2023/12/03 05:00:16;;;;;;;50.90;28.60;;;;;;;1.45;83.72;100041.23;107568;1253;113554;-61
2023/12/03 05:02:45;;;;;;;42.30;23.00;;;;;;;1.49;83.65;100047.84;107587;1251;109006;-60
2023/12/03 05:05:13;;;;;;;37.20;21.40;;;;;;;1.51;83.33;100049.34;107567;1256;108556;-61
2023/12/03 05:07:42;;;;;;;36.80;21.00;;;;;;;1.57;83.71;100051.81;107511;1254;99218;-61
2023/12/03 05:10:10;;;;;;;38.30;20.60;;;;;;;1.61;83.42;100050.36;107555;1255;99167;-64
2023/12/03 05:12:38;;;;;;;37.80;20.40;;;;;;;1.61;83.43;100061.48;107540;1254;113133;-62
2023/12/03 05:15:08;;;;;;;36.40;19.90;;;;;;;1.61;83.19;100071.56;107514;1255;109351;-62
2023/12/03 05:17:36;;;;;;;34.80;20.60;;;;;;;1.62;83.39;100079.94;107549;1254;107576;-62
2023/12/03 05:20:09;;;;;;;26.40;14.70;;;;;;;1.63;83.42;100123.71;107476;1257;99299;-60
2023/12/03 05:22:38;;;;;;;7.40;3.90;;;;;;;1.74;85.66;100130.13;107578;1253;99729;-61
2023/12/03 05:25:08;;;;;;;18.10;8.30;;;;;;;2.34;89.53;100157.52;107481;1253;112660;-61
2023/12/03 05:27:39;;;;;;;20.70;11.50;;;;;;;2.94;89.20;100191.30;107555;1257;109067;-62
2023/12/03 05:30:08;;;;;;;22.50;13.20;;;;;;;3.25;87.81;100211.80;107599;1252;107695;-60
2023/12/03 05:32:36;;;;;;;26.20;14.20;;;;;;;3.41;86.84;100219.04;107559;1255;99280;-59
2023/12/03 05:35:04;;;;;;;27.30;12.60;;;;;;;3.50;85.83;100215.84;107552;1256;99253;-60
2023/12/03 05:37:33;;;;;;;21.10;12.70;;;;;;;3.51;84.99;100219.63;107574;1256;111962;-62
2023/12/03 05:40:04;;;;;;;22.80;12.80;;;;;;;3.49;84.48;100232.34;107525;1254;109794;-61
2023/12/03 05:42:32;;;;;;;27.00;13.40;;;;;;;3.43;84.00;100247.10;107618;1254;108155;-61
2023/12/03 05:45:01;;;;;;;25.90;12.80;;;;;;;3.36;83.78;100252.55;107450;1251;99163;-61
2023/12/03 05:47:31;;;;;;;24.30;11.80;;;;;;;3.29;83.80;100253.52;107544;1254;99717;-61
2023/12/03 05:50:00;;;;;;;19.50;12.40;;;;;;;3.23;83.74;100257.66;107552;1254;113318;-63
2023/12/03 05:52:29;;;;;;;17.40;9.00;;;;;;;3.17;83.37;100269.23;107479;1254;109071;-60
2023/12/03 05:54:58;;;;;;;10.50;5.90;;;;;;;3.10;81.68;100274.97;107496;1255;108622;-60
2023/12/03 05:57:27;;;;;;;6.10;4.40;;;;;;;3.03;79.80;100278.42;107455;1257;99191;-61
2023/12/03 05:59:55;;;;;;;7.30;4.30;;;;;;;2.96;78.96;100292.16;107473;1254;99191;-61
2023/12/03 06:02:24;;;;;;;5.30;3.30;;;;;;;2.88;78.17;100300.98;107459;1253;112906;-61
2023/12/03 06:04:53;;;;;;;5.60;3.60;;;;;;;2.83;77.51;100320.27;107579;1257;108591;-63
2023/12/03 06:07:22;;;;;;;5.80;3.40;;;;;;;2.78;77.10;100326.98;107528;1258;108177;-60
2023/12/03 06:09:50;;;;;;;6.90;3.90;;;;;;;2.73;76.46;100340.77;107554;1251;99352;-61
2023/12/03 06:12:19;;;;;;;8.00;4.50;;;;;;;2.69;76.70;100377.12;107559;1254;99182;-61
2023/12/03 06:14:47;;;;;;;11.40;5.10;;;;;;;2.65;76.98;100404.45;107615;1251;113684;-60
2023/12/03 06:17:15;;;;;;;5.50;3.30;;;;;;;2.64;76.80;100436.55;107549;1256;108678;-62
2023/12/03 06:19:44;;;;;;;7.60;3.60;;;;;;;2.59;76.10;100463.59;107605;1256;108724;-62
2023/12/03 06:22:12;;;;;;;5.90;3.70;;;;;;;2.57;75.79;100492.93;107555;1254;99180;-62
2023/12/03 06:24:40;;;;;;;8.90;3.70;;;;;;;2.55;75.51;100513.23;107545;1254;99266;-60
2023/12/03 06:27:09;;;;;;;6.40;3.40;;;;;;;2.57;75.90;100519.15;107589;1255;112761;-60
2023/12/03 06:29:37;;;;;;;8.40;4.10;;;;;;;2.62;74.97;100525.16;107569;1258;108818;-65
2023/12/03 06:32:05;;;;;;;8.90;4.00;;;;;;;2.64;75.23;100554.10;107487;1253;108031;-60
2023/12/03 06:34:34;;;;;;;5.20;3.50;;;;;;;2.63;74.87;100564.46;107503;1257;99187;-62
2023/12/03 06:37:04;;;;;;;5.70;3.90;;;;;;;2.62;75.12;100577.08;107601;1255;99074;-64
2023/12/03 06:39:32;;;;;;;5.90;3.80;;;;;;;2.63;75.49;100574.75;107622;1257;112109;-60
2023/12/03 06:42:02;;;;;;;6.30;3.70;;;;;;;2.62;74.93;100576.71;107555;1254;110014;-61
2023/12/03 06:44:30;;;;;;;9.50;4.70;;;;;;;2.61;74.75;100594.83;107592;1251;108568;-60
2023/12/03 06:47:11;;;;;;;9.20;4.70;;;;;;;2.56;74.05;100607.19;107647;1254;99166;-61
2023/12/03 06:49:41;;;;;;;12.50;5.30;;;;;;;2.53;74.54;100616.20;107553;1254;99369;-61
2023/12/03 06:52:10;;;;;;;8.90;5.60;;;;;;;2.50;74.84;100626.61;107605;1256;113371;-61
2023/12/03 06:54:39;;;;;;;8.30;4.80;;;;;;;2.48;74.92;100641.79;107624;1253;108999;-61
2023/12/03 06:57:07;;;;;;;7.60;4.70;;;;;;;2.42;74.62;100650.80;107577;1256;108590;-61
2023/12/03 06:59:35;;;;;;;7.80;5.00;;;;;;;2.39;74.36;100644.76;107447;1256;99080;-61
2023/12/03 07:02:04;;;;;;;9.60;5.00;;;;;;;2.40;74.79;100637.67;107613;1251;99071;-61
2023/12/03 07:04:33;;;;;;;9.20;4.90;;;;;;;2.41;74.90;100636.51;107568;1251;113110;-61
2023/12/03 07:07:01;;;;;;;9.80;4.80;;;;;;;2.43;74.58;100646.15;107599;1254;109342;-62
2023/12/03 07:09:32;;;;;;;8.60;4.90;;;;;;;2.46;74.84;100653.40;107565;1254;109290;-62
2023/12/03 07:12:08;;;;;;;8.30;5.50;;;;;;;2.49;74.79;100656.09;107586;1254;99202;-60
2023/12/03 07:14:36;;;;;;;9.60;4.60;;;;;;;2.52;75.03;100671.33;107573;1254;99181;-61
2023/12/03 07:17:04;;;;;;;9.10;5.30;;;;;;;2.54;74.71;100683.27;107471;1255;112964;-61
2023/12/03 07:19:33;;;;;;;9.70;5.40;;;;;;;2.55;74.99;100691.84;107644;1251;109827;-61
2023/12/03 07:22:01;;;;;;;8.90;4.60;;;;;;;2.58;74.70;100694.52;107575;1251;107645;-60
2023/12/03 07:24:30;;;;;;;17.00;4.80;;;;;;;2.66;75.36;100707.34;107586;1251;99060;-61
2023/12/03 07:26:58;;;;;;;7.20;4.70;;;;;;;2.77;75.65;100707.27;107570;1257;99168;-61
2023/12/03 07:29:26;;;;;;;18.50;6.20;;;;;;;2.85;74.73;100710.18;107637;1254;111995;-62
2023/12/03 07:31:54;;;;;;;9.50;5.80;;;;;;;2.86;73.84;100717.19;107496;1254;109362;-61
2023/12/03 07:34:23;;;;;;;9.70;5.60;;;;;;;2.85;73.97;100725.96;107608;1251;108474;-62
2023/12/03 07:36:51;;;;;;;9.20;5.30;;;;;;;2.89;74.38;100733.86;107668;1251;99817;-62
2023/12/03 07:39:20;;;;;;;11.70;5.00;;;;;;;2.95;74.46;100733.19;107612;1256;99259;-65
2023/12/03 07:41:52;;;;;;;11.00;5.30;;;;;;;2.98;74.02;100742.92;107641;1255;112258;-60
2023/12/03 07:44:21;;;;;;;14.50;6.10;;;;;;;2.97;73.72;100752.17;107591;1254;109555;-61
2023/12/03 07:46:53;;;;;;;14.10;6.60;;;;;;;2.99;73.39;100766.08;107582;1253;106988;-61
2023/12/03 07:49:21;;;;;;;13.10;6.60;;;;;;;3.01;73.03;100771.46;107632;1251;99294;-58
2023/12/03 07:51:50;;;;;;;10.10;6.20;;;;;;;2.99;72.57;100781.86;107684;1256;99735;-61
2023/12/03 07:54:19;;;;;;;10.20;6.30;;;;;;;2.92;71.88;100798.01;107631;1254;111863;-61
2023/12/03 07:56:48;;;;;;;11.00;6.30;;;;;;;2.80;71.59;100799.88;107599;1253;109451;-60
2023/12/03 07:59:16;;;;;;;11.90;6.90;;;;;;;2.75;71.75;100809.40;107642;1255;108758;-61
2023/12/03 08:01:45;;;;;;;11.70;7.60;;;;;;;2.71;71.40;100809.08;107587;1254;99204;-60
2023/12/03 08:04:13;;;;;;;16.80;7.90;;;;;;;2.69;69.83;100821.23;107628;1256;99734;-61
2023/12/03 08:06:41;;;;;;;17.00;8.30;;;;;;;2.64;70.00;100826.45;107642;1253;112650;-61
2023/12/03 08:09:10;;;;;;;11.40;7.30;;;;;;;2.70;70.69;100823.64;107626;1255;110463;-60
2023/12/03 08:11:39;;;;;;;14.80;7.70;;;;;;;2.85;70.45;100827.65;107590;1254;108289;-60
2023/12/03 08:14:07;;;;;;;17.40;7.40;;;;;;;2.87;69.03;100833.73;107614;1251;99215;-59
2023/12/03 08:16:35;;;;;;;17.60;9.30;;;;;;;3.06;68.68;100826.09;107672;1254;99189;-60
2023/12/03 08:19:04;;;;;;;18.60;9.90;;;;;;;3.52;66.42;100832.52;107648;1254;112673;-61
2023/12/03 08:21:33;;;;;;;18.40;9.60;;;;;;;4.06;65.30;100844.98;107635;1254;108010;-61
2023/12/03 08:24:03;;;;;;;19.00;10.30;;;;;;;4.52;62.37;100848.98;107578;1254;108501;-62
2023/12/03 08:26:32;;;;;;;18.60;11.50;;;;;;;4.86;60.37;100853.58;107602;1251;99309;-62
2023/12/03 08:29:03;;;;;;;18.70;10.20;;;;;;;5.21;59.65;100852.27;107644;1251;99753;-60
2023/12/03 08:31:32;;;;;;;17.50;10.30;;;;;;;5.59;58.62;100850.86;107638;1251;113592;-62
2023/12/03 08:34:00;;;;;;;18.10;10.50;;;;;;;6.19;59.85;100843.13;107630;1251;109512;-62
2023/12/03 08:36:31;;;;;;;19.10;10.20;;;;;;;6.81;59.76;100841.80;107664;1256;107544;-62
2023/12/03 08:39:02;;;;;;;15.70;9.70;;;;;;;7.31;57.73;100838.36;107638;1251;99161;-60
2023/12/03 08:41:30;;;;;;;15.30;9.60;;;;;;;7.81;56.75;100855.73;107663;1253;99188;-65
2023/12/03 08:43:59;;;;;;;17.70;9.70;;;;;;;8.12;53.92;100872.20;107593;1254;113808;-61
2023/12/03 08:46:31;;;;;;;17.30;9.90;;;;;;;8.27;53.51;100879.25;107617;1254;110248;-61
2023/12/03 08:49:00;;;;;;;18.60;10.10;;;;;;;8.36;52.80;100891.09;107437;1253;108386;-60
2023/12/03 08:51:28;;;;;;;17.20;10.60;;;;;;;8.54;51.38;100905.78;107602;1254;99168;-61
2023/12/03 08:53:58;;;;;;;17.30;10.00;;;;;;;8.81;51.61;100907.31;107604;1251;99186;-63
2023/12/03 08:56:27;;;;;;;13.70;8.50;;;;;;;9.37;51.38;100904.43;107625;1254;113803;-61
2023/12/03 08:59:02;;;;;;;16.30;9.30;;;;;;;9.94;48.78;100900.12;107649;1251;108786;-62
2023/12/03 09:01:30;;;;;;;16.10;9.90;;;;;;;10.21;47.70;100901.58;107663;1253;107641;-62
2023/12/03 09:04:02;;;;;;;20.20;11.20;;;;;;;10.43;47.61;100900.13;107545;1254;99182;-62
2023/12/03 09:06:33;;;;;;;16.00;10.10;;;;;;;10.49;46.89;100891.54;107654;1251;99170;-61
2023/12/03 09:09:02;;;;;;;14.50;9.90;;;;;;;10.82;48.34;100888.50;107613;1251;112735;-61
2023/12/03 09:11:31;;;;;;;15.70;9.00;;;;;;;11.06;48.06;100888.08;107583;1254;109726;-62
2023/12/03 09:13:59;;;;;;;15.10;9.00;;;;;;;11.18;47.19;100893.85;107608;1253;107933;-61
2023/12/03 09:16:28;;;;;;;14.00;8.30;;;;;;;11.47;46.87;100896.64;107602;1251;99872;-61
2023/12/03 09:18:59;;;;;;;17.00;9.40;;;;;;;12.00;43.49;100893.23;107633;1251;99178;-61
2023/12/03 09:21:28;;;;;;;12.90;9.10;;;;;;;11.54;41.39;100899.60;107655;1251;113230;-61
2023/12/03 09:23:57;;;;;;;19.10;10.30;;;;;;;10.90;41.55;100903.94;107662;1250;108127;-60
2023/12/03 09:26:25;;;;;;;15.90;9.30;;;;;;;9.91;42.80;100912.23;107572;1253;106635;-64
2023/12/03 09:28:54;;;;;;;19.00;9.40;;;;;;;9.07;43.52;100916.30;107616;1252;99185;-61
2023/12/03 09:31:22;;;;;;;18.00;9.10;;;;;;;8.24;43.94;100919.30;107636;1251;99176;-61
2023/12/03 09:33:52;;;;;;;20.20;9.40;;;;;;;7.64;44.84;100922.88;107619;1251;113099;-61
2023/12/03 09:36:22;;;;;;;16.00;9.20;;;;;;;7.17;45.34;100928.63;107634;1251;109234;-61
2023/12/03 09:38:50;;;;;;;16.10;8.90;;;;;;;7.27;46.26;100939.29;107550;1254;108604;-63
2023/12/03 09:41:23;;;;;;;14.60;8.70;;;;;;;7.86;45.39;100939.17;107622;1253;99199;-62
2023/12/03 09:43:59;;;;;;;14.30;8.90;;;;;;;8.51;44.52;100937.68;107674;1253;99179;-61
2023/12/03 09:46:36;;;;;;;18.60;9.30;;;;;;;9.38;43.16;100945.66;107678;1254;113024;-60
2023/12/03 09:49:08;;;;;;;15.80;8.90;;;;;;;9.79;41.97;100948.15;107634;1253;110216;-61
2023/12/03 09:51:40;;;;;;;21.20;11.30;;;;;;;10.12;42.20;100945.92;107616;1254;107628;-60
2023/12/03 09:54:10;;;;;;;14.30;8.30;;;;;;;10.75;42.57;100953.02;107616;1254;99861;-62
2023/12/03 09:56:45;;;;;;;16.00;8.50;;;;;;;11.42;41.76;100957.95;107648;1253;99121;-63
2023/12/03 09:59:14;;;;;;;12.80;8.10;;;;;;;11.94;39.88;100957.09;107667;1254;113273;-63
2023/12/03 10:01:44;;;;;;;13.40;8.30;;;;;;;12.13;39.85;100966.36;107666;1256;109309;-61
2023/12/03 10:04:13;;;;;;;11.80;8.20;;;;;;;12.27;39.25;100967.19;107599;1254;108935;-61
2023/12/03 10:06:47;;;;;;;17.90;7.90;;;;;;;12.53;38.33;100971.96;107668;1254;99224;-62
2023/12/03 10:09:16;;;;;;;;;;;;;;;12.57;38.13;100978.44;107619;1251;99076;-62
2023/12/03 10:11:53;;;;;;;9.50;7.30;;;;;;;12.64;38.44;100981.34;107649;1251;112762;-60
2023/12/03 10:14:21;;;;;;;14.50;9.00;;;;;;;12.75;36.73;100988.46;107374;1251;435698;-61
2023/12/03 10:16:52;;;;;;;14.50;9.10;;;;;;;12.68;36.61;100993.38;107608;1251;108583;-63
2023/12/03 10:19:24;;;;;;;13.90;8.80;;;;;;;12.65;36.72;100998.80;107427;1253;99218;-62
2023/12/03 10:21:58;;;;;;;14.10;8.20;;;;;;;12.87;36.85;101000.46;107611;1252;99758;-60
2023/12/03 10:24:28;;;;;;;15.00;8.20;;;;;;;12.84;35.28;101010.44;107658;1254;112401;-60
2023/12/03 10:26:56;;;;;;;19.90;8.00;;;;;;;13.36;36.23;100999.48;107627;1253;109723;-61
2023/12/03 10:29:26;;;;;;;12.70;7.80;;;;;;;13.58;36.50;101011.60;107589;1253;109384;-62
2023/12/03 10:31:58;;;;;;;13.40;7.70;;;;;;;14.11;35.34;101013.92;107666;1253;99208;-61
2023/12/03 10:34:26;;;;;;;17.90;7.90;;;;;;;14.50;35.25;101014.92;107671;1252;99749;-62
2023/12/03 10:36:59;;;;;;;13.90;7.70;;;;;;;14.88;35.52;101011.27;107633;1252;112087;-61
2023/12/03 10:39:30;;;;;;;13.10;8.00;;;;;;;15.36;33.84;101017.13;107624;1251;109789;-61
2023/12/03 10:41:59;;;;;;;12.50;7.50;;;;;;;15.43;34.03;101025.50;107649;1251;108568;-61
2023/12/03 10:44:28;;;;;;;11.60;7.70;;;;;;;15.65;35.00;101032.16;107621;1251;99164;-60
2023/12/03 10:46:57;;;;;;;10.90;6.50;;;;;;;15.67;32.97;101035.03;107615;1251;99728;-62
2023/12/03 10:49:28;;;;;;;10.50;6.20;;;;;;;15.57;31.60;101034.10;107635;1251;114293;-64
2023/12/03 10:51:56;;;;;;;10.50;6.30;;;;;;;14.85;32.53;101037.36;107536;1251;109137;-61
2023/12/03 10:54:26;;;;;;;11.20;6.50;;;;;;;14.19;32.99;101046.16;107508;1251;107898;-61
2023/12/03 10:56:55;;;;;;;11.50;6.30;;;;;;;13.78;33.77;101052.48;107633;1251;99257;-61
2023/12/03 10:59:31;;;;;;;11.60;6.80;;;;;;;13.62;34.04;101052.43;107603;1251;99719;-63
2023/12/03 11:02:04;;;;;;;10.10;6.50;;;;;;;13.56;34.40;101049.30;107603;1251;113380;-61
2023/12/03 11:04:39;;;;;;;18.30;7.00;;;;;;;13.42;33.73;101054.39;107693;1251;108879;-60
2023/12/03 11:07:11;;;;;;;10.40;7.00;;;;;;;12.79;33.76;101061.67;107510;1253;108483;-61
2023/12/03 11:09:40;;;;;;;19.40;7.20;;;;;;;12.71;33.55;101058.14;107398;1253;99170;-60
2023/12/03 11:12:18;;;;;;;15.00;8.20;;;;;;;12.65;33.19;101068.96;107574;1253;99071;-60
2023/12/03 11:14:47;;;;;;;22.90;10.00;;;;;;;12.76;34.28;101065.23;107630;1253;112635;-63
2023/12/03 11:17:25;;;;;;;17.60;10.00;;;;;;;13.08;34.21;101065.67;107622;1251;110049;-60
2023/12/03 11:19:57;;;;;;;18.70;9.30;;;;;;;13.10;33.92;101069.58;107635;1253;106512;-65